• Join FlightAware (Why Join?)
  • Login
  • US Flag 
05:41PM EST


 

Airport Tracker/Info


-or-


 

Live Flight TrackerFlight Track Log ✈ DAL1515 ✈ 03-Jul-2013 ✈ KATL - KALB

Flight Track Log - Related Links

Times and Time Zones

All times are in EDT time to prevent confusion due to time zone crossing. See the DAL1515 flight status page for this flight to view local times or setup timezone preferences in your user account.

Time Position Orientation Groundspeed Altitude Reporting Facility
EDT Latitude Longitude Course Direction KTS MPH feet Rate Location/Type
09:46PM 33.6500 -84.4000 North 161 185 2,200  Level Atlanta TRACON
09:47PM 33.6500 -84.3333 90° East 231 266 3,400 2,040 Climbing Atlanta TRACON
09:48PM 33.6833 -84.2500 64° Northeast 287 330 6,300 2,640 Climbing Atlanta TRACON
09:49PM 33.9827 -84.2667 North  Level FlightAware Approximate
09:49PM 33.7667 -84.2333 North 314 361 9,000  Level Atlanta TRACON
09:50PM 34.1186 -84.2667 North  Level FlightAware Approximate
09:51PM 34.2544 -84.2667 North  Level FlightAware Approximate
09:51PM 34.0153 -84.2544 356° North 396 456 12,300  Level Atlanta Center
09:52PM 34.1217 -84.2647 355° North 399 459 16,200 2,880 Climbing Atlanta Center
09:53PM 34.2386 -84.2775 355° North 404 465 18,100 1,860 Climbing Atlanta Center
09:54PM 34.3556 -84.2653 North 404 465 20,000 1,680 Climbing Atlanta Center
09:55PM 34.4808 -84.2378 10° North 417 480 21,500 1,140 Climbing Atlanta Center
09:56PM 34.6103 -84.2053 12° North 442 509 22,300 660 Climbing Atlanta Center
09:57PM 34.7250 -84.1803 10° North 458 527 22,900 660 Climbing Atlanta Center
09:58PM 34.8647 -84.1450 12° North 484 557 23,700 900 Climbing Atlanta Center
09:59PM 35.0067 -84.1097 12° North 504 580 24,700 1,260 Climbing Atlanta Center
10:00PM 35.1486 -84.0769 11° North 510 587 26,300 1,500 Climbing Atlanta Center
10:01PM 35.2864 -84.0439 11° North 515 593 27,800 1,200 Climbing Atlanta Center
10:02PM 35.4261 -84.0108 11° North 505 581 28,800 600 Climbing Atlanta Center
10:03PM 35.5658 -83.9750 12° North 505 581 29,000 60 Climbing Atlanta Center
10:04PM 35.7036 -83.9417 11° North 505 581 29,000  Level Atlanta Center
10:05PM 35.8414 -83.9056 12° North 505 581 29,000  Level Atlanta Center
10:06PM 35.9747 -83.8514 18° North 505 581 29,000  Level Atlanta Center
10:08PM 36.1436 -83.7400 28° Northeast 510 587 29,000  Level Indianapolis Center
10:09PM 36.2675 -83.6611 27° Northeast 503 579 29,000  Level Indianapolis Center
10:10PM 36.3936 -83.5800 27° Northeast 509 586 29,000  Level Indianapolis Center
10:11PM 36.5369 -83.4906 27° Northeast 515 593 29,000  Level Indianapolis Center
10:12PM 36.6606 -83.4028 30° Northeast 511 588 29,000  Level Indianapolis Center
10:13PM 36.7731 -83.2972 37° Northeast 507 583 29,000  Level Indianapolis Center
10:14PM 36.8861 -83.1894 37° Northeast 507 583 29,000  Level Indianapolis Center
10:15PM 37.0006 -83.0833 37° Northeast 503 579 29,000  Level Indianapolis Center
10:16PM 37.1147 -82.9747 37° Northeast 504 580 29,000  Level Indianapolis Center
10:17PM 37.2261 -82.8681 37° Northeast 499 574 29,000  Level Indianapolis Center
10:18PM 37.3381 -82.7628 37° Northeast 498 573 29,000  Level Indianapolis Center
10:19PM 37.4497 -82.6575 37° Northeast 499 574 29,000  Level Indianapolis Center
10:20PM 37.5597 -82.5506 38° Northeast 498 573 29,000  Level Indianapolis Center
10:21PM 37.6706 -82.4425 38° Northeast 501 577 29,000  Level Indianapolis Center
10:22PM 37.8003 -82.3164 38° Northeast 501 577 29,000  Level Indianapolis Center
10:23PM 37.9114 -82.2097 37° Northeast 499 574 29,000  Level Indianapolis Center
10:24PM 38.0086 -82.1136 38° Northeast 499 574 29,000  Level Indianapolis Center
10:25PM 38.1172 -82.0042 38° Northeast 499 574 29,000  Level Indianapolis Center
10:26PM 38.2275 -81.8964 38° Northeast 499 574 29,000  Level Indianapolis Center
10:27PM 38.3367 -81.7861 38° Northeast 500 575 29,000  Level Indianapolis Center
10:28PM 38.4508 -81.6322 47° Northeast 501 577 29,000  Level Indianapolis Center
10:29PM 38.5400 -81.5019 49° Northeast 496 571 29,000  Level Indianapolis Center
10:30PM 38.6314 -81.3722 48° Northeast 501 577 29,000  Level Indianapolis Center
10:31PM 38.7231 -81.2411 48° Northeast 504 580 29,000  Level Indianapolis Center
10:32PM 38.8150 -81.1081 48° Northeast 504 580 29,000  Level Indianapolis Center
10:33PM 38.9100 -80.9719 48° Northeast 509 586 29,000  Level Indianapolis Center
10:34PM 39.0031 -80.8364 49° Northeast 508 585 29,000  Level Indianapolis Center
10:35PM 39.0964 -80.7033 48° Northeast 503 579 29,000  Level Indianapolis Center
10:36PM 39.1922 -80.5708 47° Northeast 505 581 29,000  Level Indianapolis Center
10:37PM 39.3044 -80.4133 47° Northeast 497 572 29,000  Level Indianapolis Center
10:38PM 39.3989 -80.2817 47° Northeast 499 574 29,000  Level Indianapolis Center
10:39PM 39.4925 -80.1478 48° Northeast 503 579 29,000  Level Indianapolis Center
10:40PM 39.5861 -80.0125 48° Northeast 503 579 29,000  Level Indianapolis Center
10:41PM 39.6789 -79.8750 49° Northeast 505 581 29,000  Level Indianapolis Center
10:42PM 39.7725 -79.7378 48° Northeast 506 582 29,000  Level Indianapolis Center
10:43PM 39.8661 -79.5992 49° Northeast 509 586 29,000  Level Indianapolis Center
10:45PM 39.9925 -79.4153 48° Northeast 501 577 29,000  Level Cleveland Center
10:46PM 40.0825 -79.2725 50° Northeast 501 577 29,000  Level Cleveland Center
10:47PM 40.1767 -79.1319 49° Northeast 506 582 29,000  Level Cleveland Center
10:48PM 40.2686 -78.9942 49° Northeast 506 582 29,000  Level Cleveland Center
10:49PM 40.3625 -78.8500 49° Northeast 506 582 29,000  Level Cleveland Center
10:50PM 40.4519 -78.7114 50° Northeast 506 582 29,000  Level Cleveland Center
10:51PM 40.5475 -78.5692 48° Northeast 506 582 29,000  Level Cleveland Center
10:53PM 40.7222 -78.2936 50° Northeast 527 606 29,000  Level New York Center
10:54PM 40.8147 -78.1503 50° Northeast 517 595 29,000  Level New York Center
10:55PM 40.9069 -78.0092 49° Northeast 512 589 29,000  Level New York Center
10:56PM 41.0008 -77.8678 49° Northeast 512 589 29,000  Level New York Center
10:57PM 41.0964 -77.7317 47° Northeast 507 583 29,000  Level New York Center
10:58PM 41.1942 -77.5928 47° Northeast 507 583 29,000  Level New York Center
10:59PM 41.2786 -77.4606 50° Northeast 514 592 29,000  Level New York Center
11:00PM 41.3808 -77.3131 47° Northeast 509 586 29,000  Level New York Center
11:01PM 41.4672 -77.1803 49° Northeast 512 589 29,000  Level New York Center
11:02PM 41.5642 -77.0397 47° Northeast 512 589 29,000  Level New York Center
11:03PM 41.6592 -76.8986 48° Northeast 512 589 29,000  Level New York Center
11:04PM 41.7519 -76.7542 49° Northeast 512 589 29,000  Level New York Center
11:05PM 41.8464 -76.6097 49° Northeast 512 589 29,000 -420 Level New York Center
11:07PM 42.0708 -76.2750 48° Northeast 525 604 27,700 -1,380 Descending Boston Center
11:08PM 42.1589 -76.1289 51° Northeast 508 585 24,500 -1,860 Descending Boston Center
11:09PM 42.2206 -75.9617 63° Northeast 503 579 24,000 -300 Descending Boston Center
11:10PM 42.2800 -75.7908 65° Northeast 492 566 24,000 -840 Level Boston Center
11:11PM 42.3225 -75.6219 71° East 487 560 22,400 -1,740 Descending Boston Center
11:12PM 42.3647 -75.4497 72° East 482 555 20,600 -1,740 Descending Boston Center
11:13PM 42.4044 -75.2800 72° East 477 549 19,000 -1,800 Descending Boston Center
11:14PM 42.4417 -75.1186 73° East 466 536 17,100 -1,500 Descending Boston Center
11:15PM 42.4717 -74.9958 72° East 451 519 16,000 -1,620 Descending Boston Center
11:16PM 42.5153 -74.8119 72° East 431 496 13,900 -2,280 Descending Boston Center
11:17PM 42.5517 -74.6583 72° East 431 496 11,500 -1,500 Descending Boston Center
11:18PM 42.6000 -74.5358 62° Northeast 414 476 11,000 -360 Descending Boston Center
11:19PM 42.6650 -74.3969 57° Northeast 394 453 10,800 -480 Descending Boston Center
11:20PM 42.7061 -74.2992 60° Northeast 352 405 10,100 -1,440 Descending Boston Center
11:21PM 42.7558 -74.1875 59° Northeast 314 361 8,000 -2,100 Descending Boston Center
11:22PM 42.7906 -74.1008 61° Northeast 290 334 6,000 -2,340 Descending Boston Center
11:23PM 42.8314 -74.0142 57° Northeast 278 320 3,400 -1,680 Descending Boston Center
11:24PM 42.8700 -73.9244 60° Northeast 267 307 2,700 -600 Descending Boston Center
11:25PM 42.8856 -73.8542 73° East 208 239 2,300 -420 Descending Boston Center
11:25PM 42.8797 -73.8169 102° East 196 226 2,100 -420 Descending Boston Center